Time;durP1;ratioP1;P1;durP2;ratioP2;P2;SDS_P1;SDS_P2;PMS_P1;PMS_P2;Temp;Humidity;BMP_temperature;BMP_pressure;BME280_temperature;BME280_humidity;BME280_pressure;Samples;Min_cycle;Max_cycle;Signal;HPM_P1;HPM_P2
2022/08/30 00:01:07;;;;;;;2.15;1.50;;;15.40;99.90;;;;;;5068978;28;20488;-56
2022/08/30 00:03:39;;;;;;;2.10;1.75;;;15.40;99.90;;;;;;5068845;28;20403;-55
2022/08/30 00:06:07;;;;;;;3.42;1.35;;;15.40;99.90;;;;;;5069697;28;20479;-55
2022/08/30 00:08:33;;;;;;;3.53;1.77;;;15.30;99.90;;;;;;5069346;28;20044;-55
2022/08/30 00:11:01;;;;;;;2.63;1.58;;;15.20;99.90;;;;;;5051205;28;20060;-55
2022/08/30 00:13:27;;;;;;;2.50;1.38;;;15.20;99.90;;;;;;5069550;28;20404;-55
2022/08/30 00:15:53;;;;;;;2.65;1.42;;;15.10;99.90;;;;;;5069315;28;20100;-55
2022/08/30 00:18:19;;;;;;;1.58;1.08;;;15.00;99.90;;;;;;5063805;28;20098;-55
2022/08/30 00:20:46;;;;;;;2.05;1.10;;;15.00;99.90;;;;;;5069429;28;20040;-56
2022/08/30 00:23:13;;;;;;;1.83;1.50;;;14.90;99.90;;;;;;5068476;28;20050;-55
2022/08/30 00:25:39;;;;;;;2.30;1.60;;;14.90;99.90;;;;;;5069350;28;20401;-55
2022/08/30 00:28:05;;;;;;;2.08;1.30;;;14.80;99.90;;;;;;5069365;28;20123;-56
2022/08/30 00:30:30;;;;;;;2.55;1.92;;;14.80;99.90;;;;;;5068862;28;20504;-56
2022/08/30 00:32:57;;;;;;;2.22;1.95;;;14.80;99.90;;;;;;5068335;28;20044;-55
2022/08/30 00:35:24;;;;;;;4.20;2.03;;;14.70;99.90;;;;;;5068722;28;20040;-56
2022/08/30 00:37:50;;;;;;;1.88;1.40;;;14.80;99.90;;;;;;5051666;28;20128;-56
2022/08/30 00:40:19;;;;;;;3.15;1.40;;;14.80;99.90;;;;;;5048619;28;20518;-55
2022/08/30 00:42:46;;;;;;;3.72;1.70;;;14.70;99.90;;;;;;5048803;28;20081;-55
2022/08/30 00:45:20;;;;;;;3.95;1.95;;;14.70;99.90;;;;;;5048793;28;20052;-55
2022/08/30 00:47:46;;;;;;;1.85;1.50;;;14.70;99.90;;;;;;5053020;28;20050;-55
2022/08/30 00:50:15;;;;;;;1.75;1.63;;;14.70;99.90;;;;;;5068015;28;20052;-55
2022/08/30 00:52:43;;;;;;;1.90;1.67;;;14.70;99.90;;;;;;5068912;28;20055;-56
2022/08/30 00:55:12;;;;;;;3.35;1.35;;;14.70;99.90;;;;;;5068678;28;20527;-55
2022/08/30 00:57:40;;;;;;;2.55;1.60;;;14.80;99.90;;;;;;5068456;28;20629;-56
2022/08/30 01:00:07;;;;;;;2.80;1.98;;;14.70;99.90;;;;;;5068543;28;20041;-55
2022/08/30 01:02:33;;;;;;;4.63;1.85;;;14.70;99.90;;;;;;5068304;28;20079;-55
2022/08/30 01:05:01;;;;;;;2.67;1.55;;;14.70;99.90;;;;;;5068247;28;20048;-55
2022/08/30 01:07:27;;;;;;;3.03;1.70;;;14.60;99.90;;;;;;5050362;28;20072;-55
2022/08/30 01:09:53;;;;;;;1.98;1.50;;;14.60;99.90;;;;;;5067963;28;20154;-55
2022/08/30 01:12:19;;;;;;;3.38;1.92;;;14.60;99.90;;;;;;5068433;28;20032;-55
2022/08/30 01:14:45;;;;;;;2.58;1.90;;;14.60;99.90;;;;;;5068062;28;20478;-55
2022/08/30 01:17:13;;;;;;;4.75;2.03;;;14.60;99.90;;;;;;5067664;28;20433;-55
2022/08/30 01:19:50;;;;;;;4.20;1.77;;;14.50;99.90;;;;;;5068302;28;20049;-55
2022/08/30 01:22:43;;;;;;;2.17;1.67;;;14.50;99.90;;;;;;5067465;28;20056;-56
2022/08/30 01:25:10;;;;;;;3.17;1.60;;;14.40;99.90;;;;;;5015898;28;20061;-56
2022/08/30 01:27:41;;;;;;;2.42;1.52;;;14.40;99.90;;;;;;5047710;28;20056;-55
2022/08/30 01:30:08;;;;;;;2.28;1.42;;;14.40;99.90;;;;;;5047984;28;20102;-55
2022/08/30 01:32:43;;;;;;;4.20;2.08;;;14.40;99.90;;;;;;5047365;28;20049;-56
2022/08/30 01:35:12;;;;;;;5.68;2.50;;;14.40;99.90;;;;;;5055553;28;20059;-55
2022/08/30 01:37:38;;;;;;;2.70;1.88;;;14.40;99.90;;;;;;5052235;28;20049;-55
2022/08/30 01:40:05;;;;;;;2.95;1.98;;;14.30;99.90;;;;;;5044831;28;20116;-56
2022/08/30 01:42:31;;;;;;;2.22;1.73;;;14.30;99.90;;;;;;5067698;28;20080;-55
2022/08/30 01:44:57;;;;;;;15.35;3.08;;;14.30;99.90;;;;;;5049493;28;20154;-55
2022/08/30 01:47:23;;;;;;;3.22;2.25;;;14.20;99.90;;;;;;5067247;28;20051;-55
2022/08/30 01:49:49;;;;;;;5.97;1.65;;;14.20;99.90;;;;;;5067646;28;20044;-55
2022/08/30 01:52:17;;;;;;;2.08;1.40;;;14.20;99.90;;;;;;5049682;28;20130;-56
2022/08/30 01:54:44;;;;;;;3.72;1.65;;;14.10;99.90;;;;;;5067002;28;20044;-55
2022/08/30 01:57:16;;;;;;;3.25;1.85;;;14.10;99.90;;;;;;5067316;28;20083;-55
2022/08/30 01:59:46;;;;;;;2.92;1.80;;;14.10;99.90;;;;;;5067224;28;20060;-55
2022/08/30 02:02:14;;;;;;;2.97;2.22;;;14.20;99.90;;;;;;5066962;28;20044;-56
2022/08/30 02:04:41;;;;;;;4.97;2.38;;;14.20;99.90;;;;;;5049327;28;20132;-55
2022/08/30 02:07:07;;;;;;;2.92;1.73;;;14.20;99.90;;;;;;5067266;28;20052;-55
2022/08/30 02:09:33;;;;;;;4.20;2.38;;;14.20;99.90;;;;;;5048264;28;20052;-55
2022/08/30 02:11:58;;;;;;;3.05;2.00;;;14.20;99.90;;;;;;5067317;28;20048;-55
2022/08/30 02:14:24;;;;;;;5.13;2.25;;;14.30;99.90;;;;;;5067189;28;20084;-55
2022/08/30 02:16:50;;;;;;;2.90;1.98;;;14.20;99.90;;;;;;5066988;28;20602;-55
2022/08/30 02:19:16;;;;;;;2.60;2.03;;;14.30;99.90;;;;;;5066536;28;20405;-55
2022/08/30 02:21:42;;;;;;;2.17;1.98;;;14.20;99.90;;;;;;5048886;28;20098;-55
2022/08/30 02:24:08;;;;;;;5.03;3.10;;;14.30;99.90;;;;;;5066831;28;20052;-58
2022/08/30 02:26:35;;;;;;;3.15;2.30;;;14.30;99.90;;;;;;5066688;28;20478;-56
2022/08/30 02:29:04;;;;;;;5.43;1.95;;;14.30;99.90;;;;;;5066994;28;20114;-55
2022/08/30 02:31:30;;;;;;;2.85;2.58;;;14.30;99.90;;;;;;5067700;28;20052;-55
2022/08/30 02:33:56;;;;;;;4.38;2.03;;;14.30;99.90;;;;;;5066747;28;20374;-56
2022/08/30 02:36:22;;;;;;;2.53;1.80;;;14.40;99.90;;;;;;5061397;28;20051;-58
2022/08/30 02:38:49;;;;;;;5.40;2.28;;;14.40;99.90;;;;;;5060441;28;20040;-55
2022/08/30 02:41:16;;;;;;;3.22;2.38;;;14.40;99.90;;;;;;5066295;28;20509;-55
2022/08/30 02:43:42;;;;;;;2.63;1.98;;;14.40;99.90;;;;;;5066721;28;20472;-55
2022/08/30 02:46:07;;;;;;;4.40;2.22;;;14.40;99.90;;;;;;5067143;28;20076;-55
2022/08/30 02:48:33;;;;;;;1.65;1.52;;;14.30;99.90;;;;;;5066472;28;20051;-55
2022/08/30 02:51:07;;;;;;;2.85;1.95;;;14.40;99.90;;;;;;5066704;28;20214;-55
2022/08/30 02:53:33;;;;;;;4.13;1.85;;;14.40;99.90;;;;;;5066054;28;20052;-56
2022/08/30 02:55:59;;;;;;;5.20;2.83;;;14.40;99.90;;;;;;5048745;28;20105;-55
2022/08/30 02:58:24;;;;;;;2.38;1.80;;;14.40;99.90;;;;;;5066679;28;20454;-55
2022/08/30 03:00:50;;;;;;;4.40;1.90;;;14.40;99.90;;;;;;5048080;28;20045;-55
2022/08/30 03:03:16;;;;;;;2.17;1.90;;;14.40;99.90;;;;;;5066577;28;20121;-55
2022/08/30 03:05:41;;;;;;;5.07;2.17;;;14.40;99.90;;;;;;5066604;28;20064;-55
2022/08/30 03:08:08;;;;;;;1.88;1.70;;;14.40;99.90;;;;;;5066630;28;20087;-55
2022/08/30 03:10:34;;;;;;;3.45;2.58;;;14.40;99.90;;;;;;5048401;28;20044;-55
2022/08/30 03:13:00;;;;;;;3.28;2.05;;;14.30;99.90;;;;;;5068669;28;20048;-56
2022/08/30 03:15:26;;;;;;;2.55;1.85;;;14.30;99.90;;;;;;5070934;28;20436;-56
2022/08/30 03:17:54;;;;;;;2.67;1.98;;;14.30;99.90;;;;;;5064092;28;20043;-55
2022/08/30 03:20:20;;;;;;;2.38;1.90;;;14.20;99.90;;;;;;5050557;28;20052;-55
2022/08/30 03:22:46;;;;;;;2.42;1.90;;;14.30;99.90;;;;;;5053820;28;20384;-55
2022/08/30 03:25:13;;;;;;;2.33;2.03;;;14.30;99.90;;;;;;5070191;28;20353;-55
2022/08/30 03:27:39;;;;;;;3.97;2.10;;;14.20;99.90;;;;;;5069861;28;20047;-56
2022/08/30 03:30:06;;;;;;;3.05;2.25;;;14.20;99.90;;;;;;5070383;28;20048;-55
2022/08/30 03:32:32;;;;;;;2.38;1.88;;;14.20;99.90;;;;;;5051327;28;20384;-55
2022/08/30 03:34:58;;;;;;;3.05;2.15;;;14.20;99.90;;;;;;5069850;28;20051;-56
2022/08/30 03:37:24;;;;;;;2.63;1.95;;;14.10;99.90;;;;;;5056255;28;20037;-56
2022/08/30 03:39:50;;;;;;;4.07;2.17;;;14.10;99.90;;;;;;5049989;28;20513;-56
2022/08/30 03:42:15;;;;;;;4.40;2.22;;;14.20;99.90;;;;;;5049915;28;20041;-57
2022/08/30 03:44:41;;;;;;;7.50;3.10;;;14.10;99.90;;;;;;5050198;28;20061;-56
2022/08/30 03:47:07;;;;;;;3.58;3.00;;;14.10;99.90;;;;;;5062068;28;20453;-57
2022/08/30 03:49:33;;;;;;;3.15;2.85;;;14.00;99.90;;;;;;5069048;28;20055;-56
2022/08/30 03:51:59;;;;;;;5.00;2.50;;;14.00;99.90;;;;;;5069037;28;20040;-55
2022/08/30 03:54:25;;;;;;;5.00;3.33;;;14.00;99.90;;;;;;5052010;28;20059;-56
2022/08/30 03:56:50;;;;;;;2.90;2.05;;;13.90;99.90;;;;;;5052103;28;20048;-56
2022/08/30 03:59:16;;;;;;;2.90;2.60;;;13.90;99.90;;;;;;5069187;28;20060;-58
2022/08/30 04:01:44;;;;;;;4.70;2.42;;;13.80;99.90;;;;;;5069515;28;20087;-56
2022/08/30 04:04:10;;;;;;;4.30;2.97;;;13.80;99.90;;;;;;5068892;28;20052;-55
2022/08/30 04:06:36;;;;;;;3.92;3.28;;;13.70;99.90;;;;;;5068405;28;20048;-57
2022/08/30 04:09:02;;;;;;;2.50;2.30;;;13.70;99.90;;;;;;5051795;28;20063;-56
2022/08/30 04:11:27;;;;;;;6.85;3.03;;;13.70;99.90;;;;;;5069629;28;20044;-60
2022/08/30 04:13:55;;;;;;;3.22;2.92;;;13.70;99.90;;;;;;5069365;28;20401;-58
2022/08/30 04:16:21;;;;;;;4.22;2.63;;;13.60;99.90;;;;;;5069752;28;20522;-55
2022/08/30 04:18:47;;;;;;;4.45;2.90;;;13.60;99.90;;;;;;5068985;28;20057;-55
2022/08/30 04:21:13;;;;;;;3.25;2.53;;;13.00;99.90;;;;;;5068614;28;20044;-55
2022/08/30 04:23:39;;;;;;;3.20;2.63;;;13.50;99.90;;;;;;5050005;28;20056;-56
2022/08/30 04:26:04;;;;;;;4.53;2.38;;;13.60;99.90;;;;;;5069202;28;20384;-55
2022/08/30 04:28:30;;;;;;;3.40;2.20;;;13.40;99.90;;;;;;5069206;28;20121;-55
2022/08/30 04:30:56;;;;;;;3.35;2.50;;;13.30;99.90;;;;;;5068811;28;20055;-59
2022/08/30 04:33:21;;;;;;;3.45;2.72;;;13.30;99.90;;;;;;5069377;28;20481;-56
2022/08/30 04:35:48;;;;;;;2.72;2.25;;;13.20;99.90;;;;;;5068475;28;20071;-59
2022/08/30 04:38:15;;;;;;;2.08;1.88;;;13.30;99.90;;;;;;5048608;28;20491;-56
2022/08/30 04:40:44;;;;;;;6.35;2.80;;;13.20;99.90;;;;;;5034682;28;20052;-55
2022/08/30 04:43:11;;;;;;;5.15;2.70;;;13.20;99.90;;;;;;5067473;28;20128;-56
2022/08/30 04:45:38;;;;;;;3.03;1.77;;;13.20;99.90;;;;;;5068142;28;20075;-55
2022/08/30 04:48:05;;;;;;;2.90;2.10;;;13.20;99.90;;;;;;5059036;28;20053;-56
2022/08/30 04:50:31;;;;;;;2.70;2.13;;;13.20;99.90;;;;;;5062170;28;20409;-55
2022/08/30 04:52:57;;;;;;;3.25;2.10;;;13.20;99.90;;;;;;5052974;28;20043;-55
2022/08/30 04:55:24;;;;;;;2.45;2.00;;;13.20;99.90;;;;;;5047958;28;20046;-55
2022/08/30 04:57:51;;;;;;;5.53;2.00;;;13.10;99.90;;;;;;5048280;28;20033;-56
2022/08/30 05:00:19;;;;;;;3.85;1.95;;;13.10;99.90;;;;;;5047516;28;20051;-55
2022/08/30 05:02:46;;;;;;;3.35;1.73;;;13.20;99.90;;;;;;5049940;28;20207;-55
2022/08/30 05:07:56;;;;;;;2.85;2.55;;;13.10;99.90;;;;;;5062355;28;20056;-55
2022/08/30 05:10:23;;;;;;;3.05;2.25;;;13.10;99.90;;;;;;5048150;28;20044;-55
2022/08/30 05:12:49;;;;;;;3.20;2.58;;;13.10;99.90;;;;;;5050538;28;20033;-55
2022/08/30 05:15:15;;;;;;;2.63;1.98;;;13.10;99.90;;;;;;5047323;28;20127;-56
2022/08/30 05:17:41;;;;;;;5.25;2.55;;;13.20;99.90;;;;;;5049849;28;20040;-55
2022/08/30 05:20:09;;;;;;;5.90;2.95;;;13.20;99.90;;;;;;5052453;28;20049;-55
2022/08/30 05:22:40;;;;;;;4.10;2.38;;;13.20;99.90;;;;;;5053695;28;20049;-55
2022/08/30 05:25:09;;;;;;;4.50;2.42;;;13.20;99.90;;;;;;5061887;28;20052;-56
2022/08/30 05:27:38;;;;;;;4.78;2.33;;;13.10;99.90;;;;;;5056402;28;20047;-56
2022/08/30 05:30:05;;;;;;;3.33;2.35;;;13.20;99.90;;;;;;5058538;28;20044;-55
2022/08/30 05:32:30;;;;;;;3.83;2.25;;;13.20;99.90;;;;;;5058413;28;20097;-55
2022/08/30 05:34:56;;;;;;;6.70;2.28;;;13.30;99.90;;;;;;5055954;28;20032;-55
2022/08/30 05:37:21;;;;;;;3.42;2.13;;;13.40;99.90;;;;;;5058987;28;20464;-55
2022/08/30 05:39:47;;;;;;;4.93;3.10;;;13.60;99.90;;;;;;5037885;28;20387;-55
2022/08/30 05:42:13;;;;;;;3.45;2.90;;;13.70;99.90;;;;;;5057347;28;20041;-55
2022/08/30 05:44:38;;;;;;;3.35;2.90;;;13.80;99.90;;;;;;5055550;28;20041;-55
2022/08/30 05:47:04;;;;;;;4.70;2.97;;;13.90;99.90;;;;;;5057226;28;20571;-55
2022/08/30 05:49:30;;;;;;;6.32;2.60;;;14.10;99.90;;;;;;5057363;28;20542;-56
2022/08/30 05:51:55;;;;;;;6.07;2.38;;;14.20;99.90;;;;;;5056000;28;20204;-56
2022/08/30 05:54:21;;;;;;;11.40;3.60;;;14.30;99.90;;;;;;5058029;28;20406;-55
2022/08/30 05:56:47;;;;;;;12.73;4.20;;;14.50;99.90;;;;;;5057282;28;20051;-60
2022/08/30 05:59:14;;;;;;;7.93;3.35;;;14.60;99.90;;;;;;5055053;28;20717;-56
2022/08/30 06:01:42;;;;;;;4.53;3.13;;;14.70;99.90;;;;;;5058680;28;20508;-55
2022/08/30 06:04:10;;;;;;;5.20;3.72;;;14.90;99.90;;;;;;5067465;28;20048;-55
2022/08/30 06:06:38;;;;;;;7.15;3.53;;;15.00;99.90;;;;;;5066760;28;20059;-56
2022/08/30 06:09:08;;;;;;;5.28;3.35;;;16.20;99.90;;;;;;5064159;28;20147;-56
2022/08/30 06:11:35;;;;;;;5.43;3.85;;;15.40;99.90;;;;;;5063990;28;20066;-56
2022/08/30 06:14:02;;;;;;;6.15;3.50;;;15.50;99.90;;;;;;5068199;28;20047;-56
2022/08/30 06:16:28;;;;;;;4.50;2.80;;;15.70;99.90;;;;;;5069685;28;20051;-56
2022/08/30 06:18:56;;;;;;;7.13;3.40;;;15.90;99.90;;;;;;5049011;28;20209;-55
2022/08/30 06:21:28;;;;;;;5.18;2.97;;;16.00;99.90;;;;;;5048872;28;20110;-55
2022/08/30 06:23:54;;;;;;;7.05;3.25;;;16.30;99.90;;;;;;5049337;28;20057;-55
2022/08/30 06:26:20;;;;;;;5.22;2.92;;;16.50;99.90;;;;;;5050651;28;20136;-56
2022/08/30 06:28:46;;;;;;;5.47;2.53;;;16.70;99.90;;;;;;5050082;28;20037;-56
2022/08/30 06:31:14;;;;;;;8.10;3.75;;;16.90;99.90;;;;;;5050196;28;20049;-56
2022/08/30 06:33:39;;;;;;;4.90;2.20;;;17.10;99.90;;;;;;5050160;28;20048;-56
2022/08/30 06:36:09;;;;;;;5.97;2.97;;;17.30;99.90;;;;;;5062953;28;20048;-56
2022/08/30 06:38:35;;;;;;;3.58;2.10;;;17.50;99.90;;;;;;5049758;28;20037;-60
2022/08/30 06:41:08;;;;;;;3.80;2.28;;;17.70;99.90;;;;;;5059860;28;20512;-57
2022/08/30 06:43:34;;;;;;;4.73;2.17;;;17.90;99.90;;;;;;5069944;28;20050;-56
2022/08/30 06:46:04;;;;;;;3.13;1.98;;;18.10;99.90;;;;;;5070269;28;20095;-56
2022/08/30 06:48:30;;;;;;;3.63;1.70;;;18.30;99.90;;;;;;5069535;28;20047;-57
2022/08/30 06:50:56;;;;;;;5.60;1.80;;;18.40;99.90;;;;;;5069730;28;20131;-56
2022/08/30 06:53:22;;;;;;;3.65;1.48;;;18.60;99.90;;;;;;5070152;28;20136;-56
2022/08/30 06:55:59;;;;;;;5.25;1.75;;;18.80;99.90;;;;;;5069174;28;20478;-57
2022/08/30 06:58:26;;;;;;;4.20;1.45;;;18.90;99.90;;;;;;5069661;28;20052;-57
2022/08/30 07:00:52;;;;;;;3.25;1.58;;;19.00;99.90;;;;;;5070001;28;20082;-58
2022/08/30 07:03:18;;;;;;;3.45;1.83;;;19.20;99.90;;;;;;5051705;28;20538;-56
2022/08/30 07:05:43;;;;;;;4.00;1.40;;;19.30;99.90;;;;;;5069781;28;20044;-56
2022/08/30 07:08:09;;;;;;;2.10;1.13;;;19.50;99.90;;;;;;5069585;28;20045;-56
2022/08/30 07:10:38;;;;;;;2.35;1.08;;;19.70;99.90;;;;;;5062171;28;20041;-57
2022/08/30 07:13:03;;;;;;;5.38;1.48;;;19.80;99.90;;;;;;5059814;28;20427;-57
2022/08/30 07:15:29;;;;;;;4.57;1.17;;;19.80;99.90;;;;;;5059878;28;20032;-56
2022/08/30 07:20:39;;;;;;;4.13;0.90;;;20.00;99.90;;;;;;5058538;28;20095;-56
2022/08/30 07:23:04;;;;;;;1.27;1.02;;;20.10;99.90;;;;;;5041411;28;20061;-56
2022/08/30 07:25:31;;;;;;;3.70;1.17;;;20.00;99.90;;;;;;5058690;28;20052;-56
2022/08/30 07:27:57;;;;;;;2.63;1.20;;;20.20;99.90;;;;;;5060263;28;20475;-56
2022/08/30 07:30:23;;;;;;;1.92;0.77;;;20.20;99.90;;;;;;5057527;28;20048;-55
2022/08/30 07:32:49;;;;;;;3.05;0.88;;;20.40;99.90;;;;;;5057262;28;20037;-56
2022/08/30 07:35:15;;;;;;;1.65;0.80;;;20.60;99.90;;;;;;5041591;28;20041;-56
2022/08/30 07:37:40;;;;;;;4.45;0.90;;;20.70;99.90;;;;;;5060340;28;20111;-56
2022/08/30 07:40:07;;;;;;;3.42;1.02;;;20.70;99.90;;;;;;5059336;28;20045;-56
2022/08/30 07:42:33;;;;;;;1.33;0.85;;;20.70;99.90;;;;;;5057964;28;20393;-56
2022/08/30 07:44:59;;;;;;;1.75;0.65;;;21.00;99.90;;;;;;5057927;28;20101;-57
2022/08/30 07:47:24;;;;;;;3.55;0.70;;;21.20;99.90;;;;;;5060335;28;20136;-57
2022/08/30 07:49:50;;;;;;;1.42;0.60;;;21.30;99.90;;;;;;5058406;28;20052;-56
2022/08/30 07:52:16;;;;;;;8.23;1.20;;;21.50;99.90;;;;;;5059922;28;20033;-56
2022/08/30 07:54:41;;;;;;;4.22;1.50;;;21.60;99.90;;;;;;5058564;28;20363;-56
2022/08/30 07:57:07;;;;;;;1.52;1.02;;;21.40;99.90;;;;;;5058756;28;20131;-56
2022/08/30 07:59:33;;;;;;;1.48;0.68;;;21.60;99.90;;;;;;5060918;28;20423;-56
2022/08/30 08:01:59;;;;;;;2.80;1.10;;;21.60;99.90;;;;;;5043118;28;20098;-55
2022/08/30 08:04:24;;;;;;;0.85;0.60;;;21.70;99.90;;;;;;5057007;28;20051;-55
2022/08/30 08:06:50;;;;;;;1.42;0.80;;;22.10;99.90;;;;;;5060368;28;20532;-56
2022/08/30 08:09:16;;;;;;;1.60;0.90;;;22.30;99.90;;;;;;5064718;28;20557;-55
2022/08/30 08:11:43;;;;;;;0.93;0.80;;;22.30;99.90;;;;;;5052629;28;20049;-56
2022/08/30 08:14:09;;;;;;;0.88;0.82;;;22.40;99.90;;;;;;5052430;28;20037;-55
2022/08/30 08:16:36;;;;;;;5.05;0.93;;;22.80;99.90;;;;;;5055105;28;20106;-56
2022/08/30 08:19:03;;;;;;;4.57;1.23;;;23.00;99.90;;;;;;5067876;28;20048;-56
2022/08/30 08:21:29;;;;;;;0.50;0.50;;;23.30;99.90;;;;;;5072459;28;20070;-56
2022/08/30 08:23:55;;;;;;;3.10;1.23;;;23.60;99.90;;;;;;5071997;28;20056;-57
2022/08/30 08:26:21;;;;;;;4.90;1.50;;;24.00;99.90;;;;;;5072131;28;20410;-58
2022/08/30 08:28:47;;;;;;;1.58;0.70;;;24.40;99.90;;;;;;5072766;28;20097;-57
2022/08/30 08:31:22;;;;;;;3.53;0.80;;;24.40;99.90;;;;;;5071714;28;20070;-56
2022/08/30 08:33:48;;;;;;;1.13;0.85;;;24.30;99.90;;;;;;5072200;28;20098;-57
2022/08/30 08:36:14;;;;;;;4.50;1.05;;;24.90;99.90;;;;;;5067780;28;20049;-58
2022/08/30 08:38:40;;;;;;;2.60;1.10;;;25.20;99.90;;;;;;5057535;28;20060;-56
2022/08/30 08:41:09;;;;;;;1.25;0.90;;;25.40;99.10;;;;;;5056594;28;20049;-56
2022/08/30 08:43:36;;;;;;;3.88;0.90;;;25.50;98.20;;;;;;5051557;28;20037;-57
2022/08/30 08:46:24;;;;;;;2.10;0.80;;;25.30;97.60;;;;;;5052301;28;20136;-59
2022/08/30 08:48:54;;;;;;;1.20;0.80;;;25.60;97.10;;;;;;5052202;28;20037;-58
2022/08/30 08:54:45;;;;;;;1.80;0.77;;;26.30;97.60;;;;;;5005192;28;20053;-59
2022/08/30 08:57:11;;;;;;;3.03;0.77;;;25.80;96.50;;;;;;5072034;28;20048;-56
2022/08/30 08:59:37;;;;;;;1.00;0.68;;;25.90;97.90;;;;;;5071667;28;20040;-58
2022/08/30 09:02:27;;;;;;;2.13;0.77;;;26.40;97.90;;;;;;5072033;28;20040;-59
2022/08/30 09:04:59;;;;;;;3.83;0.75;;;26.30;95.80;;;;;;5070951;28;20052;-59
2022/08/30 09:07:29;;;;;;;1.63;0.70;;;25.70;97.00;;;;;;5071545;28;20040;-60
2022/08/30 09:09:59;;;;;;;1.70;0.40;;;26.10;97.40;;;;;;5070523;28;20398;-58
2022/08/30 09:12:26;;;;;;;1.20;0.50;;;26.60;96.50;;;;;;5071481;28;20486;-57
2022/08/30 09:15:07;;;;;;;0.55;0.52;;;26.20;97.30;;;;;;5071495;28;20063;-56
2022/08/30 09:17:58;;;;;;;0.63;0.60;;;25.50;96.40;;;;;;5067738;28;20150;-58
2022/08/30 09:20:50;;;;;;;2.03;0.98;;;26.20;96.20;;;;;;5034112;28;20049;-58
2022/08/30 09:23:26;;;;;;;1.80;0.82;;;26.30;95.90;;;;;;5050569;28;20057;-56
2022/08/30 09:26:07;;;;;;;1.42;0.60;;;26.60;96.20;;;;;;5051046;28;20498;-59
2022/08/30 09:28:45;;;;;;;1.13;0.68;;;26.80;95.10;;;;;;5052853;28;20053;-56
2022/08/30 09:31:24;;;;;;;0.85;0.50;;;26.20;95.10;;;;;;5059288;28;20040;-58
2022/08/30 09:34:04;;;;;;;3.72;0.90;;;25.80;95.20;;;;;;5061549;28;20051;-58
2022/08/30 09:36:39;;;;;;;2.53;0.57;;;25.20;95.90;;;;;;5059143;28;20037;-59
2022/08/30 09:39:17;;;;;;;5.28;0.85;;;24.70;96.30;;;;;;5057732;28;20060;-56
2022/08/30 09:41:47;;;;;;;1.55;1.00;;;24.40;97.00;;;;;;5060331;28;20486;-57
2022/08/30 09:44:18;;;;;;;1.13;0.40;;;24.80;97.60;;;;;;5067251;28;20475;-56
2022/08/30 09:46:48;;;;;;;0.90;0.70;;;24.50;97.30;;;;;;5070569;28;20043;-56
2022/08/30 09:49:31;;;;;;;1.50;0.60;;;24.40;97.40;;;;;;5070387;28;20105;-56
2022/08/30 09:52:36;;;;;;;2.13;0.70;;;24.30;96.30;;;;;;5069956;28;20044;-56
2022/08/30 09:55:08;;;;;;;0.55;0.40;;;24.20;96.20;;;;;;4986796;28;20053;-56
2022/08/30 09:57:34;;;;;;;4.22;0.60;;;24.50;97.20;;;;;;5059145;28;20071;-56
2022/08/30 10:00:04;;;;;;;2.22;0.80;;;24.30;97.20;;;;;;5069726;28;20040;-56
2022/08/30 10:02:44;;;;;;;3.13;1.17;;;23.90;96.60;;;;;;5070051;28;20044;-56
2022/08/30 10:05:27;;;;;;;0.90;0.80;;;23.90;96.30;;;;;;5069906;28;20844;-58
2022/08/30 10:08:17;;;;;;;1.23;0.80;;;24.20;96.40;;;;;;5070157;28;20048;-57
2022/08/30 10:10:53;;;;;;;2.17;1.20;;;25.00;96.00;;;;;;5070216;28;20087;-57
2022/08/30 10:13:37;;;;;;;1.33;1.10;;;25.50;95.50;;;;;;5069942;28;20098;-56
2022/08/30 10:16:06;;;;;;;;;;;25.10;95.70;;;;;;5071042;28;20043;-56
2022/08/30 10:18:49;;;;;;;1.23;0.88;;;24.70;95.00;;;;;;5058234;28;19986;-56
2022/08/30 10:21:43;;;;;;;1.13;0.65;;;24.50;95.50;;;;;;5065059;28;20057;-57
2022/08/30 10:24:18;;;;;;;1.02;0.60;;;24.80;95.70;;;;;;5049693;28;20049;-56
2022/08/30 10:26:49;;;;;;;4.13;0.73;;;24.90;95.60;;;;;;5050459;28;20044;-57
2022/08/30 10:29:42;;;;;;;5.30;1.08;;;25.50;95.40;;;;;;5062338;28;20040;-58
2022/08/30 10:32:15;;;;;;;2.88;0.80;;;26.20;94.70;;;;;;5069899;28;20102;-56
2022/08/30 10:34:49;;;;;;;1.38;0.60;;;25.80;94.30;;;;;;5069573;28;20494;-56
2022/08/30 10:37:18;;;;;;;;;;;25.70;94.20;;;;;;5065197;28;20107;-58
2022/08/30 10:39:50;;;;;;;1.95;0.85;;;25.90;94.50;;;;;;5069591;28;19920;-56
2022/08/30 10:42:24;;;;;;;1.15;1.00;;;26.10;94.00;;;;;;5069669;28;20041;-59
2022/08/30 10:44:58;;;;;;;1.25;0.88;;;26.50;93.80;;;;;;5065971;28;20147;-57
2022/08/30 10:47:43;;;;;;;6.82;0.73;;;26.30;94.10;;;;;;5050092;28;20037;-57
2022/08/30 10:50:15;;;;;;;1.05;0.77;;;26.20;93.30;;;;;;5050388;28;20439;-59
2022/08/30 10:52:56;;;;;;;1.58;0.80;;;26.00;93.70;;;;;;5050261;28;20033;-58
2022/08/30 10:55:32;;;;;;;0.95;0.73;;;26.30;93.50;;;;;;5049099;28;20412;-59
2022/08/30 10:58:04;;;;;;;1.05;0.50;;;26.60;93.90;;;;;;5049826;28;20052;-56
2022/08/30 11:00:40;;;;;;;2.00;0.98;;;26.80;93.30;;;;;;5049490;28;20080;-56
2022/08/30 11:03:39;;;;;;;2.00;0.77;;;26.60;93.00;;;;;;5049969;28;20052;-56
2022/08/30 11:06:35;;;;;;;1.23;0.80;;;26.50;93.40;;;;;;5046156;28;20137;-56
2022/08/30 11:09:19;;;;;;;1.45;0.60;;;25.90;93.00;;;;;;5050175;28;20044;-57
2022/08/30 11:12:22;;;;;;;0.55;0.50;;;26.20;93.60;;;;;;5049538;28;20095;-56
2022/08/30 11:14:48;;;;;;;1.63;0.70;;;25.90;93.50;;;;;;5049958;28;20052;-56
2022/08/30 11:17:25;;;;;;;0.68;0.40;;;26.40;94.00;;;;;;5068736;28;20044;-56
2022/08/30 11:19:53;;;;;;;2.15;0.70;;;26.20;93.60;;;;;;5049221;28;20521;-56
2022/08/30 11:22:28;;;;;;;1.80;0.70;;;26.00;94.30;;;;;;5049204;28;20617;-63
2022/08/30 11:24:59;;;;;;;1.85;0.82;;;25.90;93.70;;;;;;5048973;28;20048;-59
2022/08/30 11:27:49;;;;;;;1.48;0.85;;;26.90;94.10;;;;;;5049755;28;20367;-62
2022/08/30 11:30:24;;;;;;;1.88;0.70;;;26.20;93.70;;;;;;5048964;28;20045;-62
2022/08/30 11:33:26;;;;;;;2.13;0.65;;;26.60;93.70;;;;;;5049342;28;20367;-61
2022/08/30 11:35:52;;;;;;;1.15;0.60;;;28.50;93.40;;;;;;5065884;28;20051;-60
2022/08/30 11:38:27;;;;;;;1.10;0.75;;;30.80;92.10;;;;;;5053602;28;20468;-61
2022/08/30 11:40:53;;;;;;;5.85;0.80;;;31.20;90.40;;;;;;5072638;28;20040;-62
2022/08/30 11:43:34;;;;;;;2.28;1.10;;;32.60;89.30;;;;;;5072624;28;20037;-62
2022/08/30 11:46:18;;;;;;;2.45;0.80;;;34.20;86.40;;;;;;5062351;28;20049;-57
2022/08/30 11:48:48;;;;;;;2.30;0.80;;;34.70;84.90;;;;;;5070656;28;20086;-59
2022/08/30 11:51:51;;;;;;;2.17;0.75;;;31.30;87.60;;;;;;5072994;28;20052;-57
2022/08/30 11:54:31;;;;;;;1.10;0.65;;;31.70;85.40;;;;;;5073638;28;20110;-57
2022/08/30 11:57:29;;;;;;;3.97;1.00;;;32.10;87.40;;;;;;5072146;28;20127;-56
2022/08/30 12:00:01;;;;;;;3.22;0.90;;;33.20;85.60;;;;;;5033845;28;20066;-61
2022/08/30 12:02:45;;;;;;;5.80;1.20;;;34.30;84.30;;;;;;5072819;28;20094;-61
2022/08/30 12:05:48;;;;;;;4.55;1.60;;;34.20;82.20;;;;;;5073107;28;20509;-62
2022/08/30 12:08:19;;;;;;;1.23;1.10;;;34.10;83.60;;;;;;5072950;28;20123;-61
2022/08/30 12:11:02;;;;;;;2.90;1.65;;;34.80;81.60;;;;;;5073346;28;20039;-62
2022/08/30 12:13:35;;;;;;;1.40;0.98;;;35.90;81.60;;;;;;5073812;28;20043;-62
2022/08/30 12:16:23;;;;;;;1.17;0.95;;;36.40;80.20;;;;;;5071822;28;20180;-63
2022/08/30 12:19:03;;;;;;;5.57;1.10;;;36.80;80.00;;;;;;5066939;28;20057;-61
2022/08/30 12:21:36;;;;;;;3.72;0.90;;;37.70;78.80;;;;;;5072947;28;20047;-58
2022/08/30 12:24:22;;;;;;;1.63;1.00;;;38.20;76.90;;;;;;5072720;28;20048;-61
2022/08/30 12:26:50;;;;;;;1.42;0.82;;;34.90;77.80;;;;;;5071632;28;20036;-62
2022/08/30 12:29:21;;;;;;;2.25;1.35;;;35.30;79.10;;;;;;5063075;28;20045;-60
2022/08/30 12:32:02;;;;;;;1.63;0.63;;;34.70;79.00;;;;;;5071377;28;20047;-60
2022/08/30 12:34:47;;;;;;;1.58;0.98;;;32.30;79.80;;;;;;5064800;28;20098;-57
2022/08/30 12:37:35;;;;;;;3.15;1.25;;;30.30;81.50;;;;;;5060519;28;20760;-58
2022/08/30 12:40:07;;;;;;;1.08;0.60;;;30.20;82.50;;;;;;5069048;28;20053;-59
2022/08/30 12:42:48;;;;;;;2.22;0.68;;;30.00;83.70;;;;;;5072130;28;20060;-58
2022/08/30 12:45:19;;;;;;;0.90;0.50;;;29.70;84.30;;;;;;5070949;28;20059;-60
2022/08/30 12:48:05;;;;;;;3.05;0.73;;;30.00;85.50;;;;;;5071185;28;20439;-58
2022/08/30 12:50:36;;;;;;;1.20;0.80;;;29.80;84.80;;;;;;5061873;28;20041;-58
2022/08/30 12:53:12;;;;;;;1.38;0.50;;;29.50;84.40;;;;;;5070979;28;20125;-58
2022/08/30 12:55:58;;;;;;;1.83;0.50;;;28.70;85.70;;;;;;5070119;28;20143;-62
2022/08/30 12:58:42;;;;;;;1.23;0.50;;;29.40;86.00;;;;;;5071264;28;20123;-62
2022/08/30 13:01:17;;;;;;;0.68;0.40;;;29.00;86.10;;;;;;5070369;28;20091;-57
2022/08/30 13:03:57;;;;;;;0.75;0.50;;;28.30;87.40;;;;;;5070077;28;20082;-62
2022/08/30 13:06:41;;;;;;;5.57;1.00;;;28.20;87.50;;;;;;5061655;28;20159;-57
2022/08/30 13:09:07;;;;;;;1.52;0.60;;;28.80;87.50;;;;;;5057962;28;20109;-61
2022/08/30 13:11:33;;;;;;;3.53;0.70;;;28.40;88.70;;;;;;5059415;28;20048;-60
2022/08/30 13:14:19;;;;;;;0.40;0.40;;;28.40;88.70;;;;;;5056624;28;20040;-60